Weather at Stegeborg

Public forecast

Using degrees Celsius for public forecast. Weather courtesy of forecast.io.

Closest aviation weather report (METAR) to Stegeborg

Closest report is Norrköping Airport, 14.4 nm (26.7 km) NW. Retrieved 2021/08/02 18:20 UTC (40 minutes ago):

ESSP 021820Z AUTO 34009KT 9999 SCT023/// 15/10 Q1005

Closest aviation forecast (TAF) to Stegeborg

Forecast is more than 12 hours old.

Closest forecast is Norrköping Airport, 14.4 nm (26.7 km) NW. Retrieved 2018/01/01 02:31 UTC (4 years ago):

TAF ESSP 010130Z 0102/0206 16002KT 9999 BKN004 PROB40 0102/0106 4000 BR SCT004